sensor_id;sensor_type;location;lat;lon;timestamp;P1;durP1;ratioP1;P2;durP2;ratioP2
37641;SDS011;23486;51.956;5.888;2023-06-26T00:00:20;4.55;;;3.60;;
37641;SDS011;23486;51.956;5.888;2023-06-26T00:02:46;4.95;;;4.03;;
37641;SDS011;23486;51.956;5.888;2023-06-26T00:05:12;3.72;;;3.00;;
37641;SDS011;23486;51.956;5.888;2023-06-26T00:07:38;5.93;;;4.32;;
37641;SDS011;23486;51.956;5.888;2023-06-26T00:10:04;5.40;;;3.85;;
37641;SDS011;23486;51.956;5.888;2023-06-26T00:12:30;4.78;;;4.28;;
37641;SDS011;23486;51.956;5.888;2023-06-26T00:14:57;4.63;;;3.53;;
37641;SDS011;23486;51.956;5.888;2023-06-26T00:17:26;5.40;;;3.47;;
37641;SDS011;23486;51.956;5.888;2023-06-26T00:19:51;5.15;;;4.03;;
37641;SDS011;23486;51.956;5.888;2023-06-26T00:22:17;6.72;;;4.70;;
37641;SDS011;23486;51.956;5.888;2023-06-26T00:24:43;4.60;;;3.80;;
37641;SDS011;23486;51.956;5.888;2023-06-26T00:27:12;5.80;;;4.10;;
37641;SDS011;23486;51.956;5.888;2023-06-26T00:29:37;5.95;;;4.75;;
37641;SDS011;23486;51.956;5.888;2023-06-26T00:32:03;5.75;;;5.05;;
37641;SDS011;23486;51.956;5.888;2023-06-26T00:34:29;5.57;;;3.75;;
37641;SDS011;23486;51.956;5.888;2023-06-26T00:36:58;5.07;;;3.97;;
37641;SDS011;23486;51.956;5.888;2023-06-26T00:39:25;4.85;;;4.05;;
37641;SDS011;23486;51.956;5.888;2023-06-26T00:41:51;5.22;;;4.25;;
37641;SDS011;23486;51.956;5.888;2023-06-26T00:44:19;5.50;;;4.32;;
37641;SDS011;23486;51.956;5.888;2023-06-26T00:46:45;6.70;;;4.95;;
37641;SDS011;23486;51.956;5.888;2023-06-26T00:49:11;4.78;;;4.28;;
37641;SDS011;23486;51.956;5.888;2023-06-26T00:51:37;5.32;;;4.13;;
37641;SDS011;23486;51.956;5.888;2023-06-26T00:54:03;5.03;;;4.13;;
37641;SDS011;23486;51.956;5.888;2023-06-26T00:56:29;6.38;;;4.28;;
37641;SDS011;23486;51.956;5.888;2023-06-26T00:58:56;5.50;;;4.43;;
37641;SDS011;23486;51.956;5.888;2023-06-26T01:01:22;6.45;;;5.10;;
37641;SDS011;23486;51.956;5.888;2023-06-26T01:03:51;5.40;;;4.60;;
37641;SDS011;23486;51.956;5.888;2023-06-26T01:06:18;5.40;;;4.65;;
37641;SDS011;23486;51.956;5.888;2023-06-26T01:08:49;5.82;;;4.35;;
37641;SDS011;23486;51.956;5.888;2023-06-26T01:11:15;5.20;;;4.45;;
37641;SDS011;23486;51.956;5.888;2023-06-26T01:13:44;5.38;;;4.72;;
37641;SDS011;23486;51.956;5.888;2023-06-26T01:16:10;6.70;;;4.50;;
37641;SDS011;23486;51.956;5.888;2023-06-26T01:18:37;6.22;;;4.57;;
37641;SDS011;23486;51.956;5.888;2023-06-26T01:21:07;5.70;;;5.07;;
37641;SDS011;23486;51.956;5.888;2023-06-26T01:26:22;5.07;;;4.38;;
37641;SDS011;23486;51.956;5.888;2023-06-26T01:28:51;7.53;;;4.47;;
37641;SDS011;23486;51.956;5.888;2023-06-26T01:31:18;6.55;;;5.05;;
37641;SDS011;23486;51.956;5.888;2023-06-26T01:33:44;7.05;;;5.28;;
37641;SDS011;23486;51.956;5.888;2023-06-26T01:36:11;5.55;;;4.93;;
37641;SDS011;23486;51.956;5.888;2023-06-26T01:38:37;6.65;;;5.60;;
37641;SDS011;23486;51.956;5.888;2023-06-26T01:41:03;6.78;;;5.82;;
37641;SDS011;23486;51.956;5.888;2023-06-26T01:46:23;7.78;;;6.10;;
37641;SDS011;23486;51.956;5.888;2023-06-26T01:51:41;7.88;;;6.07;;
37641;SDS011;23486;51.956;5.888;2023-06-26T01:54:12;9.18;;;6.43;;
37641;SDS011;23486;51.956;5.888;2023-06-26T01:56:41;6.47;;;5.68;;
37641;SDS011;23486;51.956;5.888;2023-06-26T01:59:09;7.55;;;5.47;;
37641;SDS011;23486;51.956;5.888;2023-06-26T02:01:39;7.03;;;5.82;;
37641;SDS011;23486;51.956;5.888;2023-06-26T02:04:05;8.30;;;6.70;;
37641;SDS011;23486;51.956;5.888;2023-06-26T02:06:30;7.43;;;6.65;;
37641;SDS011;23486;51.956;5.888;2023-06-26T02:08:56;7.00;;;6.15;;
37641;SDS011;23486;51.956;5.888;2023-06-26T02:11:22;7.13;;;6.38;;
37641;SDS011;23486;51.956;5.888;2023-06-26T02:13:48;8.10;;;5.75;;
37641;SDS011;23486;51.956;5.888;2023-06-26T02:16:13;8.00;;;6.85;;
37641;SDS011;23486;51.956;5.888;2023-06-26T02:18:39;8.48;;;5.80;;
37641;SDS011;23486;51.956;5.888;2023-06-26T02:21:05;7.20;;;5.93;;
37641;SDS011;23486;51.956;5.888;2023-06-26T02:23:31;5.82;;;4.63;;
37641;SDS011;23486;51.956;5.888;2023-06-26T02:25:57;6.80;;;5.22;;
37641;SDS011;23486;51.956;5.888;2023-06-26T02:28:23;7.13;;;4.95;;
37641;SDS011;23486;51.956;5.888;2023-06-26T02:30:51;6.20;;;3.85;;
37641;SDS011;23486;51.956;5.888;2023-06-26T02:33:20;5.97;;;3.92;;
37641;SDS011;23486;51.956;5.888;2023-06-26T02:35:45;7.38;;;4.20;;
37641;SDS011;23486;51.956;5.888;2023-06-26T02:38:11;6.53;;;3.17;;
37641;SDS011;23486;51.956;5.888;2023-06-26T02:40:38;6.18;;;3.00;;
37641;SDS011;23486;51.956;5.888;2023-06-26T02:43:03;3.90;;;2.60;;
37641;SDS011;23486;51.956;5.888;2023-06-26T02:45:29;4.72;;;2.38;;
37641;SDS011;23486;51.956;5.888;2023-06-26T02:47:54;5.20;;;1.92;;
37641;SDS011;23486;51.956;5.888;2023-06-26T02:50:20;6.10;;;2.10;;
37641;SDS011;23486;51.956;5.888;2023-06-26T02:52:45;5.72;;;2.17;;
37641;SDS011;23486;51.956;5.888;2023-06-26T02:55:15;7.57;;;3.17;;
37641;SDS011;23486;51.956;5.888;2023-06-26T02:57:41;7.85;;;2.33;;
37641;SDS011;23486;51.956;5.888;2023-06-26T03:00:06;7.85;;;2.53;;
37641;SDS011;23486;51.956;5.888;2023-06-26T03:02:33;6.15;;;1.73;;
37641;SDS011;23486;51.956;5.888;2023-06-26T03:05:01;3.63;;;1.70;;
37641;SDS011;23486;51.956;5.888;2023-06-26T03:07:27;5.07;;;1.65;;
37641;SDS011;23486;51.956;5.888;2023-06-26T03:09:53;5.40;;;1.63;;
37641;SDS011;23486;51.956;5.888;2023-06-26T03:12:19;3.90;;;1.73;;
37641;SDS011;23486;51.956;5.888;2023-06-26T03:14:44;4.47;;;1.95;;
37641;SDS011;23486;51.956;5.888;2023-06-26T03:17:10;5.47;;;1.98;;
37641;SDS011;23486;51.956;5.888;2023-06-26T03:19:35;5.65;;;1.88;;
37641;SDS011;23486;51.956;5.888;2023-06-26T03:22:01;5.13;;;2.45;;
37641;SDS011;23486;51.956;5.888;2023-06-26T03:24:28;7.60;;;2.85;;
37641;SDS011;23486;51.956;5.888;2023-06-26T03:26:54;5.75;;;2.35;;
37641;SDS011;23486;51.956;5.888;2023-06-26T03:29:20;4.30;;;2.03;;
37641;SDS011;23486;51.956;5.888;2023-06-26T03:31:45;4.68;;;2.22;;
37641;SDS011;23486;51.956;5.888;2023-06-26T03:34:11;7.68;;;2.90;;
37641;SDS011;23486;51.956;5.888;2023-06-26T03:36:36;5.40;;;2.28;;
37641;SDS011;23486;51.956;5.888;2023-06-26T03:39:02;5.78;;;1.98;;
37641;SDS011;23486;51.956;5.888;2023-06-26T03:41:29;7.25;;;2.20;;
37641;SDS011;23486;51.956;5.888;2023-06-26T03:43:54;7.57;;;2.63;;
37641;SDS011;23486;51.956;5.888;2023-06-26T03:46:25;9.63;;;2.40;;
37641;SDS011;23486;51.956;5.888;2023-06-26T03:48:51;8.52;;;3.28;;
37641;SDS011;23486;51.956;5.888;2023-06-26T03:51:16;10.10;;;3.28;;
37641;SDS011;23486;51.956;5.888;2023-06-26T03:53:42;9.05;;;3.00;;
37641;SDS011;23486;51.956;5.888;2023-06-26T03:56:07;7.53;;;2.28;;
37641;SDS011;23486;51.956;5.888;2023-06-26T03:58:33;5.13;;;1.92;;
37641;SDS011;23486;51.956;5.888;2023-06-26T04:00:58;7.78;;;2.80;;
37641;SDS011;23486;51.956;5.888;2023-06-26T04:03:27;9.20;;;3.42;;
37641;SDS011;23486;51.956;5.888;2023-06-26T04:05:52;9.07;;;2.67;;
37641;SDS011;23486;51.956;5.888;2023-06-26T04:08:18;9.65;;;2.78;;
37641;SDS011;23486;51.956;5.888;2023-06-26T04:10:44;8.95;;;3.35;;
37641;SDS011;23486;51.956;5.888;2023-06-26T04:13:10;7.93;;;2.30;;
37641;SDS011;23486;51.956;5.888;2023-06-26T04:15:39;8.13;;;2.47;;
37641;SDS011;23486;51.956;5.888;2023-06-26T04:18:05;8.32;;;2.78;;
37641;SDS011;23486;51.956;5.888;2023-06-26T04:20:30;9.82;;;2.50;;
37641;SDS011;23486;51.956;5.888;2023-06-26T04:22:56;11.45;;;3.17;;
37641;SDS011;23486;51.956;5.888;2023-06-26T04:25:21;6.93;;;2.20;;
37641;SDS011;23486;51.956;5.888;2023-06-26T04:27:47;7.82;;;2.20;;
37641;SDS011;23486;51.956;5.888;2023-06-26T04:30:12;10.27;;;3.03;;
37641;SDS011;23486;51.956;5.888;2023-06-26T04:32:38;8.13;;;2.35;;
37641;SDS011;23486;51.956;5.888;2023-06-26T04:35:04;11.75;;;3.42;;
37641;SDS011;23486;51.956;5.888;2023-06-26T04:37:30;8.07;;;2.60;;
37641;SDS011;23486;51.956;5.888;2023-06-26T04:39:55;8.55;;;3.00;;
37641;SDS011;23486;51.956;5.888;2023-06-26T04:42:21;10.15;;;2.90;;
37641;SDS011;23486;51.956;5.888;2023-06-26T04:44:46;12.63;;;3.65;;
37641;SDS011;23486;51.956;5.888;2023-06-26T04:47:12;9.63;;;3.53;;
37641;SDS011;23486;51.956;5.888;2023-06-26T04:49:40;12.20;;;3.47;;
37641;SDS011;23486;51.956;5.888;2023-06-26T04:52:10;7.90;;;2.97;;
37641;SDS011;23486;51.956;5.888;2023-06-26T04:54:38;9.57;;;3.47;;
37641;SDS011;23486;51.956;5.888;2023-06-26T04:57:04;14.30;;;3.63;;
37641;SDS011;23486;51.956;5.888;2023-06-26T04:59:30;12.23;;;2.75;;
37641;SDS011;23486;51.956;5.888;2023-06-26T05:01:56;10.68;;;3.13;;
37641;SDS011;23486;51.956;5.888;2023-06-26T05:04:22;10.82;;;3.30;;
37641;SDS011;23486;51.956;5.888;2023-06-26T05:06:47;11.93;;;3.83;;
37641;SDS011;23486;51.956;5.888;2023-06-26T05:09:13;14.43;;;3.70;;
37641;SDS011;23486;51.956;5.888;2023-06-26T05:11:39;11.52;;;3.83;;
37641;SDS011;23486;51.956;5.888;2023-06-26T05:14:05;14.73;;;4.30;;
37641;SDS011;23486;51.956;5.888;2023-06-26T05:16:34;13.38;;;3.03;;
37641;SDS011;23486;51.956;5.888;2023-06-26T05:19:00;8.73;;;2.88;;
37641;SDS011;23486;51.956;5.888;2023-06-26T05:21:25;16.33;;;4.32;;
37641;SDS011;23486;51.956;5.888;2023-06-26T05:23:52;13.52;;;4.53;;
37641;SDS011;23486;51.956;5.888;2023-06-26T05:26:22;9.80;;;3.55;;
37641;SDS011;23486;51.956;5.888;2023-06-26T05:28:47;11.85;;;3.22;;
37641;SDS011;23486;51.956;5.888;2023-06-26T05:31:14;11.20;;;4.03;;
37641;SDS011;23486;51.956;5.888;2023-06-26T05:33:41;11.65;;;3.90;;
37641;SDS011;23486;51.956;5.888;2023-06-26T05:36:09;11.30;;;3.75;;
37641;SDS011;23486;51.956;5.888;2023-06-26T05:38:42;12.68;;;3.97;;
37641;SDS011;23486;51.956;5.888;2023-06-26T05:41:07;13.27;;;3.20;;
37641;SDS011;23486;51.956;5.888;2023-06-26T05:43:36;10.75;;;3.05;;
37641;SDS011;23486;51.956;5.888;2023-06-26T05:46:02;10.27;;;3.03;;
37641;SDS011;23486;51.956;5.888;2023-06-26T05:48:27;9.00;;;3.38;;
37641;SDS011;23486;51.956;5.888;2023-06-26T05:50:53;15.02;;;3.90;;
37641;SDS011;23486;51.956;5.888;2023-06-26T05:53:19;12.75;;;3.10;;
37641;SDS011;23486;51.956;5.888;2023-06-26T05:55:45;7.20;;;3.17;;
37641;SDS011;23486;51.956;5.888;2023-06-26T05:58:11;7.05;;;2.42;;
37641;SDS011;23486;51.956;5.888;2023-06-26T06:00:38;12.88;;;3.00;;
37641;SDS011;23486;51.956;5.888;2023-06-26T06:03:05;8.60;;;2.58;;
37641;SDS011;23486;51.956;5.888;2023-06-26T06:05:30;7.88;;;2.53;;
37641;SDS011;23486;51.956;5.888;2023-06-26T06:07:56;7.03;;;2.35;;
37641;SDS011;23486;51.956;5.888;2023-06-26T06:10:22;8.57;;;2.40;;
37641;SDS011;23486;51.956;5.888;2023-06-26T06:12:47;7.05;;;2.13;;
37641;SDS011;23486;51.956;5.888;2023-06-26T06:15:13;5.72;;;2.13;;
37641;SDS011;23486;51.956;5.888;2023-06-26T06:17:38;8.43;;;2.13;;
37641;SDS011;23486;51.956;5.888;2023-06-26T06:20:07;9.77;;;2.10;;
37641;SDS011;23486;51.956;5.888;2023-06-26T06:22:33;8.93;;;1.73;;
37641;SDS011;23486;51.956;5.888;2023-06-26T06:24:58;6.50;;;1.67;;
37641;SDS011;23486;51.956;5.888;2023-06-26T06:27:25;4.15;;;1.42;;
37641;SDS011;23486;51.956;5.888;2023-06-26T06:29:55;5.88;;;1.80;;
37641;SDS011;23486;51.956;5.888;2023-06-26T06:32:20;5.25;;;1.35;;
37641;SDS011;23486;51.956;5.888;2023-06-26T06:34:46;6.03;;;1.15;;
37641;SDS011;23486;51.956;5.888;2023-06-26T06:37:12;5.93;;;1.55;;
37641;SDS011;23486;51.956;5.888;2023-06-26T06:39:37;3.67;;;0.80;;
37641;SDS011;23486;51.956;5.888;2023-06-26T06:42:03;3.35;;;1.02;;
37641;SDS011;23486;51.956;5.888;2023-06-26T06:44:29;4.68;;;1.27;;
37641;SDS011;23486;51.956;5.888;2023-06-26T06:46:55;4.07;;;1.02;;
37641;SDS011;23486;51.956;5.888;2023-06-26T06:49:21;5.78;;;1.15;;
37641;SDS011;23486;51.956;5.888;2023-06-26T06:51:47;3.20;;;1.00;;
37641;SDS011;23486;51.956;5.888;2023-06-26T06:54:12;3.65;;;0.80;;
37641;SDS011;23486;51.956;5.888;2023-06-26T06:56:40;3.95;;;0.70;;
37641;SDS011;23486;51.956;5.888;2023-06-26T06:59:06;4.20;;;1.60;;
37641;SDS011;23486;51.956;5.888;2023-06-26T07:01:31;3.88;;;1.10;;
37641;SDS011;23486;51.956;5.888;2023-06-26T07:03:57;6.97;;;1.05;;
37641;SDS011;23486;51.956;5.888;2023-06-26T07:06:22;5.28;;;1.00;;
37641;SDS011;23486;51.956;5.888;2023-06-26T07:08:48;2.70;;;0.63;;
37641;SDS011;23486;51.956;5.888;2023-06-26T07:11:14;3.53;;;1.05;;
37641;SDS011;23486;51.956;5.888;2023-06-26T07:13:40;3.55;;;1.00;;
37641;SDS011;23486;51.956;5.888;2023-06-26T07:16:05;2.55;;;0.77;;
37641;SDS011;23486;51.956;5.888;2023-06-26T07:18:31;4.10;;;0.98;;
37641;SDS011;23486;51.956;5.888;2023-06-26T07:20:57;3.05;;;1.08;;
37641;SDS011;23486;51.956;5.888;2023-06-26T07:23:22;2.83;;;0.75;;
37641;SDS011;23486;51.956;5.888;2023-06-26T07:25:48;4.68;;;1.10;;
37641;SDS011;23486;51.956;5.888;2023-06-26T07:28:14;5.35;;;1.23;;
37641;SDS011;23486;51.956;5.888;2023-06-26T07:30:39;4.88;;;0.88;;
37641;SDS011;23486;51.956;5.888;2023-06-26T07:33:05;7.20;;;1.55;;
37641;SDS011;23486;51.956;5.888;2023-06-26T07:35:33;5.07;;;1.00;;
37641;SDS011;23486;51.956;5.888;2023-06-26T07:37:59;8.75;;;1.17;;
37641;SDS011;23486;51.956;5.888;2023-06-26T07:40:25;7.47;;;1.45;;
37641;SDS011;23486;51.956;5.888;2023-06-26T07:42:51;4.10;;;1.23;;
37641;SDS011;23486;51.956;5.888;2023-06-26T07:45:18;7.53;;;1.20;;
37641;SDS011;23486;51.956;5.888;2023-06-26T07:47:45;2.85;;;0.98;;
37641;SDS011;23486;51.956;5.888;2023-06-26T07:50:11;3.15;;;1.00;;
37641;SDS011;23486;51.956;5.888;2023-06-26T07:52:37;5.15;;;1.25;;
37641;SDS011;23486;51.956;5.888;2023-06-26T07:55:05;3.83;;;1.10;;
37641;SDS011;23486;51.956;5.888;2023-06-26T07:57:31;5.82;;;1.15;;
37641;SDS011;23486;51.956;5.888;2023-06-26T07:59:57;4.60;;;1.38;;
37641;SDS011;23486;51.956;5.888;2023-06-26T08:02:22;6.40;;;1.60;;
37641;SDS011;23486;51.956;5.888;2023-06-26T08:04:48;4.18;;;1.17;;
37641;SDS011;23486;51.956;5.888;2023-06-26T08:07:14;2.60;;;0.80;;
37641;SDS011;23486;51.956;5.888;2023-06-26T08:09:39;4.47;;;0.85;;
37641;SDS011;23486;51.956;5.888;2023-06-26T08:12:08;3.55;;;1.38;;
37641;SDS011;23486;51.956;5.888;2023-06-26T08:14:33;2.63;;;0.90;;
37641;SDS011;23486;51.956;5.888;2023-06-26T08:16:59;3.17;;;1.40;;
37641;SDS011;23486;51.956;5.888;2023-06-26T08:19:24;3.20;;;0.93;;
37641;SDS011;23486;51.956;5.888;2023-06-26T08:21:50;4.65;;;1.20;;
37641;SDS011;23486;51.956;5.888;2023-06-26T08:24:16;3.05;;;1.05;;
37641;SDS011;23486;51.956;5.888;2023-06-26T08:26:44;5.57;;;1.20;;
37641;SDS011;23486;51.956;5.888;2023-06-26T08:29:11;2.88;;;1.10;;
37641;SDS011;23486;51.956;5.888;2023-06-26T08:31:46;4.50;;;1.23;;
37641;SDS011;23486;51.956;5.888;2023-06-26T08:34:11;4.68;;;1.02;;
37641;SDS011;23486;51.956;5.888;2023-06-26T08:36:37;3.42;;;1.02;;
37641;SDS011;23486;51.956;5.888;2023-06-26T08:39:14;4.13;;;1.15;;
37641;SDS011;23486;51.956;5.888;2023-06-26T08:41:40;5.18;;;1.30;;
37641;SDS011;23486;51.956;5.888;2023-06-26T08:44:07;4.60;;;1.30;;
37641;SDS011;23486;51.956;5.888;2023-06-26T08:46:32;5.82;;;1.33;;
37641;SDS011;23486;51.956;5.888;2023-06-26T08:49:05;6.45;;;1.35;;
37641;SDS011;23486;51.956;5.888;2023-06-26T08:51:39;4.88;;;1.40;;
37641;SDS011;23486;51.956;5.888;2023-06-26T08:54:11;3.83;;;1.30;;
37641;SDS011;23486;51.956;5.888;2023-06-26T08:56:40;5.30;;;0.80;;
37641;SDS011;23486;51.956;5.888;2023-06-26T08:59:08;3.38;;;1.30;;
37641;SDS011;23486;51.956;5.888;2023-06-26T09:01:35;3.00;;;0.80;;
37641;SDS011;23486;51.956;5.888;2023-06-26T09:04:02;2.60;;;0.80;;
37641;SDS011;23486;51.956;5.888;2023-06-26T09:06:28;3.95;;;0.60;;
37641;SDS011;23486;51.956;5.888;2023-06-26T09:08:53;2.92;;;0.63;;
37641;SDS011;23486;51.956;5.888;2023-06-26T09:11:20;5.00;;;0.82;;
37641;SDS011;23486;51.956;5.888;2023-06-26T09:13:45;2.92;;;0.55;;
37641;SDS011;23486;51.956;5.888;2023-06-26T09:16:12;3.25;;;0.60;;
37641;SDS011;23486;51.956;5.888;2023-06-26T09:18:40;3.00;;;0.60;;
37641;SDS011;23486;51.956;5.888;2023-06-26T09:21:07;1.90;;;0.50;;
37641;SDS011;23486;51.956;5.888;2023-06-26T09:23:33;3.17;;;0.50;;
37641;SDS011;23486;51.956;5.888;2023-06-26T09:26:01;1.65;;;0.40;;
37641;SDS011;23486;51.956;5.888;2023-06-26T09:28:31;1.75;;;0.57;;
37641;SDS011;23486;51.956;5.888;2023-06-26T09:31:04;1.58;;;0.30;;
37641;SDS011;23486;51.956;5.888;2023-06-26T09:33:34;3.50;;;0.60;;
37641;SDS011;23486;51.956;5.888;2023-06-26T09:36:10;5.15;;;0.70;;
37641;SDS011;23486;51.956;5.888;2023-06-26T09:38:45;2.30;;;0.40;;
37641;SDS011;23486;51.956;5.888;2023-06-26T09:41:17;2.65;;;0.40;;
37641;SDS011;23486;51.956;5.888;2023-06-26T09:43:46;3.33;;;0.40;;
37641;SDS011;23486;51.956;5.888;2023-06-26T09:46:30;2.25;;;0.32;;
37641;SDS011;23486;51.956;5.888;2023-06-26T09:49:03;2.78;;;0.50;;
37641;SDS011;23486;51.956;5.888;2023-06-26T09:51:32;3.53;;;0.40;;
37641;SDS011;23486;51.956;5.888;2023-06-26T09:53:59;3.60;;;0.40;;
37641;SDS011;23486;51.956;5.888;2023-06-26T09:56:26;5.03;;;0.40;;
37641;SDS011;23486;51.956;5.888;2023-06-26T09:58:53;8.55;;;0.60;;
37641;SDS011;23486;51.956;5.888;2023-06-26T10:01:25;4.00;;;0.40;;
37641;SDS011;23486;51.956;5.888;2023-06-26T10:03:54;2.55;;;0.30;;
37641;SDS011;23486;51.956;5.888;2023-06-26T10:06:24;4.20;;;0.60;;
37641;SDS011;23486;51.956;5.888;2023-06-26T10:09:06;4.78;;;0.50;;
37641;SDS011;23486;51.956;5.888;2023-06-26T10:11:47;2.75;;;0.30;;
37641;SDS011;23486;51.956;5.888;2023-06-26T10:14:21;3.83;;;0.47;;
37641;SDS011;23486;51.956;5.888;2023-06-26T10:16:50;3.60;;;0.35;;
37641;SDS011;23486;51.956;5.888;2023-06-26T10:19:16;3.03;;;0.40;;
37641;SDS011;23486;51.956;5.888;2023-06-26T10:24:16;2.15;;;0.40;;
37641;SDS011;23486;51.956;5.888;2023-06-26T10:26:45;3.22;;;0.40;;
37641;SDS011;23486;51.956;5.888;2023-06-26T10:29:17;2.22;;;0.30;;
37641;SDS011;23486;51.956;5.888;2023-06-26T10:31:55;4.53;;;0.70;;
37641;SDS011;23486;51.956;5.888;2023-06-26T10:34:26;5.03;;;0.40;;
37641;SDS011;23486;51.956;5.888;2023-06-26T10:36:58;5.78;;;0.50;;
37641;SDS011;23486;51.956;5.888;2023-06-26T10:39:25;3.40;;;0.40;;
37641;SDS011;23486;51.956;5.888;2023-06-26T10:41:51;1.33;;;0.30;;
37641;SDS011;23486;51.956;5.888;2023-06-26T10:44:20;1.55;;;0.30;;
37641;SDS011;23486;51.956;5.888;2023-06-26T10:49:27;4.93;;;0.50;;
37641;SDS011;23486;51.956;5.888;2023-06-26T10:51:54;2.88;;;0.38;;
37641;SDS011;23486;51.956;5.888;2023-06-26T10:54:22;1.98;;;0.30;;
37641;SDS011;23486;51.956;5.888;2023-06-26T10:56:54;3.42;;;0.40;;
37641;SDS011;23486;51.956;5.888;2023-06-26T10:59:23;1.92;;;0.30;;
37641;SDS011;23486;51.956;5.888;2023-06-26T11:01:54;4.13;;;0.25;;
37641;SDS011;23486;51.956;5.888;2023-06-26T11:12:35;2.72;;;0.30;;
37641;SDS011;23486;51.956;5.888;2023-06-26T11:15:11;3.55;;;0.30;;
37641;SDS011;23486;51.956;5.888;2023-06-26T11:17:38;1.90;;;0.30;;
37641;SDS011;23486;51.956;5.888;2023-06-26T11:20:08;1.85;;;0.43;;
37641;SDS011;23486;51.956;5.888;2023-06-26T11:22:39;2.15;;;0.32;;
37641;SDS011;23486;51.956;5.888;2023-06-26T11:25:07;1.10;;;0.20;;
37641;SDS011;23486;51.956;5.888;2023-06-26T11:30:06;5.85;;;0.43;;
37641;SDS011;23486;51.956;5.888;2023-06-26T11:32:32;2.75;;;0.40;;
37641;SDS011;23486;51.956;5.888;2023-06-26T11:35:01;4.45;;;0.40;;
37641;SDS011;23486;51.956;5.888;2023-06-26T11:37:26;2.40;;;0.43;;
37641;SDS011;23486;51.956;5.888;2023-06-26T11:39:52;1.27;;;0.30;;
37641;SDS011;23486;51.956;5.888;2023-06-26T11:42:21;1.30;;;0.20;;
37641;SDS011;23486;51.956;5.888;2023-06-26T11:44:46;3.47;;;0.30;;
37641;SDS011;23486;51.956;5.888;2023-06-26T11:47:16;1.33;;;0.20;;
37641;SDS011;23486;51.956;5.888;2023-06-26T11:49:47;2.45;;;0.30;;
37641;SDS011;23486;51.956;5.888;2023-06-26T11:52:13;2.22;;;0.30;;
37641;SDS011;23486;51.956;5.888;2023-06-26T11:54:39;1.83;;;0.30;;
37641;SDS011;23486;51.956;5.888;2023-06-26T11:57:05;2.17;;;0.30;;
37641;SDS011;23486;51.956;5.888;2023-06-26T11:59:35;3.15;;;0.40;;
37641;SDS011;23486;51.956;5.888;2023-06-26T12:02:08;1.95;;;0.20;;
37641;SDS011;23486;51.956;5.888;2023-06-26T12:04:40;2.10;;;0.40;;
37641;SDS011;23486;51.956;5.888;2023-06-26T12:07:07;2.05;;;0.35;;
37641;SDS011;23486;51.956;5.888;2023-06-26T12:09:45;1.88;;;0.30;;
37641;SDS011;23486;51.956;5.888;2023-06-26T12:12:13;4.00;;;0.38;;
37641;SDS011;23486;51.956;5.888;2023-06-26T12:14:41;1.27;;;0.35;;
37641;SDS011;23486;51.956;5.888;2023-06-26T12:17:10;2.67;;;0.38;;
37641;SDS011;23486;51.956;5.888;2023-06-26T12:19:37;2.72;;;0.30;;
37641;SDS011;23486;51.956;5.888;2023-06-26T12:22:07;3.35;;;0.40;;
37641;SDS011;23486;51.956;5.888;2023-06-26T12:24:33;1.77;;;0.30;;
37641;SDS011;23486;51.956;5.888;2023-06-26T12:27:00;1.98;;;0.30;;
37641;SDS011;23486;51.956;5.888;2023-06-26T12:29:31;4.10;;;0.40;;
37641;SDS011;23486;51.956;5.888;2023-06-26T12:31:58;1.70;;;0.30;;
37641;SDS011;23486;51.956;5.888;2023-06-26T12:34:41;1.52;;;0.28;;
37641;SDS011;23486;51.956;5.888;2023-06-26T12:37:11;2.17;;;0.40;;
37641;SDS011;23486;51.956;5.888;2023-06-26T12:39:45;1.60;;;0.30;;
37641;SDS011;23486;51.956;5.888;2023-06-26T12:42:12;8.70;;;0.30;;
37641;SDS011;23486;51.956;5.888;2023-06-26T12:44:43;3.47;;;0.52;;
37641;SDS011;23486;51.956;5.888;2023-06-26T12:47:09;2.33;;;0.22;;
37641;SDS011;23486;51.956;5.888;2023-06-26T12:49:36;2.97;;;0.30;;
37641;SDS011;23486;51.956;5.888;2023-06-26T12:52:03;2.13;;;0.30;;
37641;SDS011;23486;51.956;5.888;2023-06-26T12:54:31;2.78;;;0.50;;
37641;SDS011;23486;51.956;5.888;2023-06-26T12:57:01;2.50;;;0.20;;
37641;SDS011;23486;51.956;5.888;2023-06-26T12:59:28;1.73;;;0.30;;
37641;SDS011;23486;51.956;5.888;2023-06-26T13:01:55;2.65;;;0.30;;
37641;SDS011;23486;51.956;5.888;2023-06-26T13:04:20;2.60;;;0.28;;
37641;SDS011;23486;51.956;5.888;2023-06-26T13:06:46;2.00;;;0.30;;
37641;SDS011;23486;51.956;5.888;2023-06-26T13:09:11;1.83;;;0.30;;
37641;SDS011;23486;51.956;5.888;2023-06-26T13:11:37;1.92;;;0.30;;
37641;SDS011;23486;51.956;5.888;2023-06-26T13:14:03;4.28;;;0.30;;
37641;SDS011;23486;51.956;5.888;2023-06-26T13:16:31;1.52;;;0.30;;
37641;SDS011;23486;51.956;5.888;2023-06-26T13:18:57;1.27;;;0.20;;
37641;SDS011;23486;51.956;5.888;2023-06-26T13:21:24;1.80;;;0.30;;
37641;SDS011;23486;51.956;5.888;2023-06-26T13:23:49;1.65;;;0.30;;
37641;SDS011;23486;51.956;5.888;2023-06-26T13:26:15;3.63;;;0.30;;
37641;SDS011;23486;51.956;5.888;2023-06-26T13:28:41;1.08;;;0.22;;
37641;SDS011;23486;51.956;5.888;2023-06-26T13:31:06;2.58;;;0.47;;
37641;SDS011;23486;51.956;5.888;2023-06-26T13:33:32;1.98;;;0.30;;
37641;SDS011;23486;51.956;5.888;2023-06-26T13:35:58;2.80;;;0.30;;
37641;SDS011;23486;51.956;5.888;2023-06-26T13:38:24;1.58;;;0.30;;
37641;SDS011;23486;51.956;5.888;2023-06-26T13:40:53;1.45;;;0.30;;
37641;SDS011;23486;51.956;5.888;2023-06-26T13:43:28;11.88;;;0.50;;
37641;SDS011;23486;51.956;5.888;2023-06-26T13:45:55;2.10;;;0.20;;
37641;SDS011;23486;51.956;5.888;2023-06-26T13:48:21;4.03;;;0.32;;
37641;SDS011;23486;51.956;5.888;2023-06-26T13:50:49;5.68;;;0.40;;
37641;SDS011;23486;51.956;5.888;2023-06-26T13:53:15;4.97;;;0.32;;
37641;SDS011;23486;51.956;5.888;2023-06-26T13:55:47;1.48;;;0.30;;
37641;SDS011;23486;51.956;5.888;2023-06-26T13:58:12;3.13;;;0.30;;
37641;SDS011;23486;51.956;5.888;2023-06-26T14:00:39;1.40;;;0.20;;
37641;SDS011;23486;51.956;5.888;2023-06-26T14:03:06;7.53;;;0.40;;
37641;SDS011;23486;51.956;5.888;2023-06-26T14:05:35;1.00;;;0.20;;
37641;SDS011;23486;51.956;5.888;2023-06-26T14:08:06;3.05;;;0.30;;
37641;SDS011;23486;51.956;5.888;2023-06-26T14:10:33;1.42;;;0.20;;
37641;SDS011;23486;51.956;5.888;2023-06-26T14:12:59;1.58;;;0.30;;
37641;SDS011;23486;51.956;5.888;2023-06-26T14:15:25;1.98;;;0.30;;
37641;SDS011;23486;51.956;5.888;2023-06-26T14:17:51;2.33;;;0.30;;
37641;SDS011;23486;51.956;5.888;2023-06-26T14:20:20;1.95;;;0.20;;
37641;SDS011;23486;51.956;5.888;2023-06-26T14:22:47;2.20;;;0.40;;
37641;SDS011;23486;51.956;5.888;2023-06-26T14:25:14;1.45;;;0.30;;
37641;SDS011;23486;51.956;5.888;2023-06-26T14:27:42;2.65;;;0.30;;
37641;SDS011;23486;51.956;5.888;2023-06-26T14:30:08;1.42;;;0.20;;
37641;SDS011;23486;51.956;5.888;2023-06-26T14:32:34;1.65;;;0.30;;
37641;SDS011;23486;51.956;5.888;2023-06-26T14:35:00;3.83;;;0.22;;
37641;SDS011;23486;51.956;5.888;2023-06-26T14:37:26;1.75;;;0.20;;
37641;SDS011;23486;51.956;5.888;2023-06-26T14:39:54;2.42;;;0.30;;
37641;SDS011;23486;51.956;5.888;2023-06-26T14:42:19;0.50;;;0.10;;
37641;SDS011;23486;51.956;5.888;2023-06-26T14:44:45;2.53;;;0.30;;
37641;SDS011;23486;51.956;5.888;2023-06-26T14:47:15;2.95;;;0.57;;
37641;SDS011;23486;51.956;5.888;2023-06-26T14:49:43;1.30;;;0.20;;
37641;SDS011;23486;51.956;5.888;2023-06-26T14:52:09;4.10;;;0.40;;
37641;SDS011;23486;51.956;5.888;2023-06-26T14:54:35;2.92;;;0.50;;
37641;SDS011;23486;51.956;5.888;2023-06-26T14:57:06;1.95;;;0.30;;
37641;SDS011;23486;51.956;5.888;2023-06-26T14:59:32;1.50;;;0.20;;
37641;SDS011;23486;51.956;5.888;2023-06-26T15:01:58;1.65;;;0.20;;
37641;SDS011;23486;51.956;5.888;2023-06-26T15:04:24;2.47;;;0.30;;
37641;SDS011;23486;51.956;5.888;2023-06-26T15:06:49;3.28;;;0.30;;
37641;SDS011;23486;51.956;5.888;2023-06-26T15:09:15;1.73;;;0.28;;